sensor_id;sensor_type;location;lat;lon;timestamp;temperature;humidity
27671;DHT22;15077;49.704;9.908;2022-12-18T00:01:34;-5.50;56.30
27671;DHT22;15077;49.704;9.908;2022-12-18T00:04:05;-5.50;56.30
27671;DHT22;15077;49.704;9.908;2022-12-18T00:06:37;-5.50;56.30
27671;DHT22;15077;49.704;9.908;2022-12-18T00:09:03;-5.50;56.30
27671;DHT22;15077;49.704;9.908;2022-12-18T00:11:30;-5.50;56.20
27671;DHT22;15077;49.704;9.908;2022-12-18T00:13:59;-5.50;56.30
27671;DHT22;15077;49.704;9.908;2022-12-18T00:16:28;-5.50;56.30
27671;DHT22;15077;49.704;9.908;2022-12-18T00:19:00;-5.50;56.30
27671;DHT22;15077;49.704;9.908;2022-12-18T00:21:29;-5.50;56.30
27671;DHT22;15077;49.704;9.908;2022-12-18T00:23:56;-5.60;56.30
27671;DHT22;15077;49.704;9.908;2022-12-18T00:26:25;-5.60;56.30
27671;DHT22;15077;49.704;9.908;2022-12-18T00:28:53;-5.60;56.40
27671;DHT22;15077;49.704;9.908;2022-12-18T00:31:23;-5.60;56.40
27671;DHT22;15077;49.704;9.908;2022-12-18T00:33:50;-5.60;56.50
27671;DHT22;15077;49.704;9.908;2022-12-18T00:36:18;-5.60;56.50
27671;DHT22;15077;49.704;9.908;2022-12-18T00:38:47;-5.60;56.40
27671;DHT22;15077;49.704;9.908;2022-12-18T00:41:15;-5.60;56.40
27671;DHT22;15077;49.704;9.908;2022-12-18T00:44:01;-5.60;56.30
27671;DHT22;15077;49.704;9.908;2022-12-18T00:46:27;-5.60;56.40
27671;DHT22;15077;49.704;9.908;2022-12-18T00:48:53;-5.60;56.40
27671;DHT22;15077;49.704;9.908;2022-12-18T00:51:19;-5.60;56.50
27671;DHT22;15077;49.704;9.908;2022-12-18T00:53:45;-5.60;56.50
27671;DHT22;15077;49.704;9.908;2022-12-18T00:56:12;-5.60;56.50
27671;DHT22;15077;49.704;9.908;2022-12-18T00:58:41;-5.60;56.60
27671;DHT22;15077;49.704;9.908;2022-12-18T01:01:07;-5.60;56.60
27671;DHT22;15077;49.704;9.908;2022-12-18T01:03:34;-5.60;56.60
27671;DHT22;15077;49.704;9.908;2022-12-18T01:06:08;-5.60;57.10
27671;DHT22;15077;49.704;9.908;2022-12-18T01:08:37;-5.60;56.50
27671;DHT22;15077;49.704;9.908;2022-12-18T01:11:09;-5.70;56.40
27671;DHT22;15077;49.704;9.908;2022-12-18T01:13:46;-5.60;56.50
27671;DHT22;15077;49.704;9.908;2022-12-18T01:16:15;-5.60;56.60
27671;DHT22;15077;49.704;9.908;2022-12-18T01:18:43;-5.70;56.50
27671;DHT22;15077;49.704;9.908;2022-12-18T01:21:14;-5.60;56.50
27671;DHT22;15077;49.704;9.908;2022-12-18T01:23:42;-5.60;56.50
27671;DHT22;15077;49.704;9.908;2022-12-18T01:26:10;-5.70;56.50
27671;DHT22;15077;49.704;9.908;2022-12-18T01:28:39;-5.60;56.50
27671;DHT22;15077;49.704;9.908;2022-12-18T01:31:33;-5.70;56.50
27671;DHT22;15077;49.704;9.908;2022-12-18T01:34:03;-5.70;56.60
27671;DHT22;15077;49.704;9.908;2022-12-18T01:36:33;-5.70;56.50
27671;DHT22;15077;49.704;9.908;2022-12-18T01:39:03;-5.70;56.50
27671;DHT22;15077;49.704;9.908;2022-12-18T01:41:36;-5.70;56.50
27671;DHT22;15077;49.704;9.908;2022-12-18T01:52:37;-5.80;56.50
27671;DHT22;15077;49.704;9.908;2022-12-18T01:55:05;-5.80;56.60
27671;DHT22;15077;49.704;9.908;2022-12-18T01:57:32;-5.90;56.60
27671;DHT22;15077;49.704;9.908;2022-12-18T02:00:06;-5.90;56.70
27671;DHT22;15077;49.704;9.908;2022-12-18T02:02:34;-5.90;56.70
27671;DHT22;15077;49.704;9.908;2022-12-18T02:05:00;-5.90;56.70
27671;DHT22;15077;49.704;9.908;2022-12-18T02:07:48;-5.90;56.80
27671;DHT22;15077;49.704;9.908;2022-12-18T02:13:26;-5.90;56.80
27671;DHT22;15077;49.704;9.908;2022-12-18T02:23:06;-5.90;56.70
27671;DHT22;15077;49.704;9.908;2022-12-18T02:29:33;-5.90;56.60
27671;DHT22;15077;49.704;9.908;2022-12-18T02:31:51;-5.90;56.60
27671;DHT22;15077;49.704;9.908;2022-12-18T02:34:22;-6.00;56.60
27671;DHT22;15077;49.704;9.908;2022-12-18T02:36:54;-6.00;56.60
27671;DHT22;15077;49.704;9.908;2022-12-18T02:39:25;-6.00;56.70
27671;DHT22;15077;49.704;9.908;2022-12-18T02:41:52;-6.00;56.80
27671;DHT22;15077;49.704;9.908;2022-12-18T02:44:18;-6.10;56.80
27671;DHT22;15077;49.704;9.908;2022-12-18T02:46:49;-6.10;56.80
27671;DHT22;15077;49.704;9.908;2022-12-18T02:49:38;-6.10;56.90
27671;DHT22;15077;49.704;9.908;2022-12-18T02:57:58;-6.10;56.80
27671;DHT22;15077;49.704;9.908;2022-12-18T03:00:52;-6.10;56.80
27671;DHT22;15077;49.704;9.908;2022-12-18T03:03:48;-6.10;56.90
27671;DHT22;15077;49.704;9.908;2022-12-18T03:06:59;-6.10;57.60
27671;DHT22;15077;49.704;9.908;2022-12-18T03:09:33;-6.10;57.00
27671;DHT22;15077;49.704;9.908;2022-12-18T03:12:28;-6.10;56.90
27671;DHT22;15077;49.704;9.908;2022-12-18T03:17:33;-6.10;56.80
27671;DHT22;15077;49.704;9.908;2022-12-18T03:20:07;-6.20;56.80
27671;DHT22;15077;49.704;9.908;2022-12-18T03:22:38;-6.20;56.90
27671;DHT22;15077;49.704;9.908;2022-12-18T03:25:10;-6.20;56.90
27671;DHT22;15077;49.704;9.908;2022-12-18T03:27:45;-6.20;57.00
27671;DHT22;15077;49.704;9.908;2022-12-18T03:30:15;-6.20;56.90
27671;DHT22;15077;49.704;9.908;2022-12-18T03:32:48;-6.20;56.90
27671;DHT22;15077;49.704;9.908;2022-12-18T03:35:32;-6.20;56.90
27671;DHT22;15077;49.704;9.908;2022-12-18T03:38:00;-6.20;56.90
27671;DHT22;15077;49.704;9.908;2022-12-18T03:40:53;-6.20;56.80
27671;DHT22;15077;49.704;9.908;2022-12-18T03:43:34;-6.20;56.80
27671;DHT22;15077;49.704;9.908;2022-12-18T03:51:48;-6.20;57.40
27671;DHT22;15077;49.704;9.908;2022-12-18T03:54:20;-6.30;56.60
27671;DHT22;15077;49.704;9.908;2022-12-18T03:56:51;-6.30;56.60
27671;DHT22;15077;49.704;9.908;2022-12-18T03:59:24;-6.30;56.90
27671;DHT22;15077;49.704;9.908;2022-12-18T04:01:52;-6.30;56.70
27671;DHT22;15077;49.704;9.908;2022-12-18T04:04:21;-6.30;56.70
27671;DHT22;15077;49.704;9.908;2022-12-18T04:06:50;-6.30;56.70
27671;DHT22;15077;49.704;9.908;2022-12-18T04:09:18;-6.30;57.30
27671;DHT22;15077;49.704;9.908;2022-12-18T04:11:46;-6.30;56.70
27671;DHT22;15077;49.704;9.908;2022-12-18T04:14:12;-6.30;56.70
27671;DHT22;15077;49.704;9.908;2022-12-18T04:16:38;-6.30;56.70
27671;DHT22;15077;49.704;9.908;2022-12-18T04:19:04;-6.30;56.80
27671;DHT22;15077;49.704;9.908;2022-12-18T04:21:30;-6.30;56.80
27671;DHT22;15077;49.704;9.908;2022-12-18T04:23:56;-6.30;56.80
27671;DHT22;15077;49.704;9.908;2022-12-18T04:26:22;-6.40;56.60
27671;DHT22;15077;49.704;9.908;2022-12-18T04:28:48;-6.30;56.70
27671;DHT22;15077;49.704;9.908;2022-12-18T04:31:13;-6.40;56.60
27671;DHT22;15077;49.704;9.908;2022-12-18T04:33:39;-6.40;56.50
27671;DHT22;15077;49.704;9.908;2022-12-18T04:36:05;-6.40;57.20
27671;DHT22;15077;49.704;9.908;2022-12-18T04:38:31;-6.40;56.70
27671;DHT22;15077;49.704;9.908;2022-12-18T04:40:59;-6.40;56.70
27671;DHT22;15077;49.704;9.908;2022-12-18T04:43:24;-6.40;56.80
27671;DHT22;15077;49.704;9.908;2022-12-18T04:45:50;-6.40;56.80
27671;DHT22;15077;49.704;9.908;2022-12-18T04:48:16;-6.40;56.80
27671;DHT22;15077;49.704;9.908;2022-12-18T04:50:41;-6.40;56.80
27671;DHT22;15077;49.704;9.908;2022-12-18T04:53:07;-6.50;56.80
27671;DHT22;15077;49.704;9.908;2022-12-18T04:55:33;-6.40;56.90
27671;DHT22;15077;49.704;9.908;2022-12-18T04:57:59;-6.40;56.90
27671;DHT22;15077;49.704;9.908;2022-12-18T05:00:24;-6.40;56.90
27671;DHT22;15077;49.704;9.908;2022-12-18T05:02:50;-6.40;56.90
27671;DHT22;15077;49.704;9.908;2022-12-18T05:05:16;-6.40;57.60
27671;DHT22;15077;49.704;9.908;2022-12-18T05:07:43;-6.40;57.50
27671;DHT22;15077;49.704;9.908;2022-12-18T05:10:10;-6.40;57.00
27671;DHT22;15077;49.704;9.908;2022-12-18T05:12:37;-6.40;57.00
27671;DHT22;15077;49.704;9.908;2022-12-18T05:15:28;-6.40;57.10
27671;DHT22;15077;49.704;9.908;2022-12-18T05:17:57;-6.40;57.20
27671;DHT22;15077;49.704;9.908;2022-12-18T05:20:24;-6.40;57.40
27671;DHT22;15077;49.704;9.908;2022-12-18T05:22:51;-6.40;57.50
27671;DHT22;15077;49.704;9.908;2022-12-18T05:25:18;-6.30;57.60
27671;DHT22;15077;49.704;9.908;2022-12-18T05:27:45;-6.40;57.50
27671;DHT22;15077;49.704;9.908;2022-12-18T05:30:12;-6.30;57.60
27671;DHT22;15077;49.704;9.908;2022-12-18T05:32:39;-6.30;57.60
27671;DHT22;15077;49.704;9.908;2022-12-18T05:35:09;-6.30;57.60
27671;DHT22;15077;49.704;9.908;2022-12-18T05:37:35;-6.30;57.50
27671;DHT22;15077;49.704;9.908;2022-12-18T05:40:03;-6.30;57.40
27671;DHT22;15077;49.704;9.908;2022-12-18T05:42:30;-6.30;57.50
27671;DHT22;15077;49.704;9.908;2022-12-18T05:44:56;-6.30;57.40
27671;DHT22;15077;49.704;9.908;2022-12-18T05:47:22;-6.30;57.40
27671;DHT22;15077;49.704;9.908;2022-12-18T05:49:48;-6.30;57.40
27671;DHT22;15077;49.704;9.908;2022-12-18T05:52:13;-6.30;57.40
27671;DHT22;15077;49.704;9.908;2022-12-18T05:54:39;-6.30;57.40
27671;DHT22;15077;49.704;9.908;2022-12-18T05:57:05;-6.30;57.80
27671;DHT22;15077;49.704;9.908;2022-12-18T05:59:31;-6.20;58.00
27671;DHT22;15077;49.704;9.908;2022-12-18T06:01:56;-6.20;58.30
27671;DHT22;15077;49.704;9.908;2022-12-18T06:04:23;-6.30;58.60
27671;DHT22;15077;49.704;9.908;2022-12-18T06:06:48;-6.20;58.90
27671;DHT22;15077;49.704;9.908;2022-12-18T06:09:14;-6.20;59.30
27671;DHT22;15077;49.704;9.908;2022-12-18T06:11:40;-6.30;59.40
27671;DHT22;15077;49.704;9.908;2022-12-18T06:14:06;-6.20;60.00
27671;DHT22;15077;49.704;9.908;2022-12-18T06:16:32;-6.20;60.20
27671;DHT22;15077;49.704;9.908;2022-12-18T06:18:59;-6.20;60.50
27671;DHT22;15077;49.704;9.908;2022-12-18T06:21:27;-6.10;60.80
27671;DHT22;15077;49.704;9.908;2022-12-18T06:23:53;-6.10;60.90
27671;DHT22;15077;49.704;9.908;2022-12-18T06:26:19;-6.10;60.90
27671;DHT22;15077;49.704;9.908;2022-12-18T06:28:45;-6.10;61.10
27671;DHT22;15077;49.704;9.908;2022-12-18T06:31:11;-6.00;61.20
27671;DHT22;15077;49.704;9.908;2022-12-18T06:33:37;-6.00;61.30
27671;DHT22;15077;49.704;9.908;2022-12-18T06:36:07;-6.00;61.20
27671;DHT22;15077;49.704;9.908;2022-12-18T06:38:36;-6.00;61.40
27671;DHT22;15077;49.704;9.908;2022-12-18T06:41:11;-6.00;61.50
27671;DHT22;15077;49.704;9.908;2022-12-18T06:43:39;-6.00;61.60
27671;DHT22;15077;49.704;9.908;2022-12-18T06:46:05;-6.00;61.60
27671;DHT22;15077;49.704;9.908;2022-12-18T06:48:31;-5.90;61.70
27671;DHT22;15077;49.704;9.908;2022-12-18T06:50:58;-5.90;61.70
27671;DHT22;15077;49.704;9.908;2022-12-18T06:53:24;-5.90;61.80
27671;DHT22;15077;49.704;9.908;2022-12-18T06:55:50;-5.90;61.80
27671;DHT22;15077;49.704;9.908;2022-12-18T06:58:16;-5.90;61.90
27671;DHT22;15077;49.704;9.908;2022-12-18T07:00:42;-5.90;61.90
27671;DHT22;15077;49.704;9.908;2022-12-18T07:03:10;-5.80;62.00
27671;DHT22;15077;49.704;9.908;2022-12-18T07:05:40;-5.80;62.00
27671;DHT22;15077;49.704;9.908;2022-12-18T07:08:06;-5.80;62.00
27671;DHT22;15077;49.704;9.908;2022-12-18T07:10:32;-5.80;61.90
27671;DHT22;15077;49.704;9.908;2022-12-18T07:12:58;-5.70;62.00
27671;DHT22;15077;49.704;9.908;2022-12-18T07:15:23;-5.70;62.00
27671;DHT22;15077;49.704;9.908;2022-12-18T07:17:49;-5.60;62.10
27671;DHT22;15077;49.704;9.908;2022-12-18T07:20:15;-5.60;62.10
27671;DHT22;15077;49.704;9.908;2022-12-18T07:22:41;-5.60;62.10
27671;DHT22;15077;49.704;9.908;2022-12-18T07:25:07;-5.50;62.20
27671;DHT22;15077;49.704;9.908;2022-12-18T07:27:33;-5.50;62.20
27671;DHT22;15077;49.704;9.908;2022-12-18T07:29:59;-5.50;62.30
27671;DHT22;15077;49.704;9.908;2022-12-18T07:32:25;-5.40;62.40
27671;DHT22;15077;49.704;9.908;2022-12-18T07:34:51;-5.40;62.60
27671;DHT22;15077;49.704;9.908;2022-12-18T07:37:16;-5.30;62.60
27671;DHT22;15077;49.704;9.908;2022-12-18T07:39:42;-5.30;62.70
27671;DHT22;15077;49.704;9.908;2022-12-18T07:42:08;-5.30;62.70
27671;DHT22;15077;49.704;9.908;2022-12-18T07:44:52;-5.20;62.80
27671;DHT22;15077;49.704;9.908;2022-12-18T07:47:18;-5.10;62.90
27671;DHT22;15077;49.704;9.908;2022-12-18T07:49:43;-5.10;63.20
27671;DHT22;15077;49.704;9.908;2022-12-18T07:52:09;-5.00;63.30
27671;DHT22;15077;49.704;9.908;2022-12-18T07:54:35;-5.00;63.30
27671;DHT22;15077;49.704;9.908;2022-12-18T07:57:00;-5.00;63.40
27671;DHT22;15077;49.704;9.908;2022-12-18T07:59:26;-4.90;63.50
27671;DHT22;15077;49.704;9.908;2022-12-18T08:01:52;-4.90;64.00
27671;DHT22;15077;49.704;9.908;2022-12-18T08:04:17;-4.80;64.40
27671;DHT22;15077;49.704;9.908;2022-12-18T08:06:43;-4.70;64.40
27671;DHT22;15077;49.704;9.908;2022-12-18T08:09:10;-4.70;64.40
27671;DHT22;15077;49.704;9.908;2022-12-18T08:11:36;-4.70;64.40
27671;DHT22;15077;49.704;9.908;2022-12-18T08:14:01;-4.60;64.50
27671;DHT22;15077;49.704;9.908;2022-12-18T08:16:27;-4.60;64.50
27671;DHT22;15077;49.704;9.908;2022-12-18T08:18:54;-4.50;64.50
27671;DHT22;15077;49.704;9.908;2022-12-18T08:21:22;-4.50;64.80
27671;DHT22;15077;49.704;9.908;2022-12-18T08:23:51;-4.40;64.90
27671;DHT22;15077;49.704;9.908;2022-12-18T08:26:19;-4.40;65.00
27671;DHT22;15077;49.704;9.908;2022-12-18T08:28:45;-4.30;64.80
27671;DHT22;15077;49.704;9.908;2022-12-18T08:31:11;-4.30;64.80
27671;DHT22;15077;49.704;9.908;2022-12-18T08:33:38;-4.20;64.80
27671;DHT22;15077;49.704;9.908;2022-12-18T08:36:05;-4.20;64.80
27671;DHT22;15077;49.704;9.908;2022-12-18T08:38:32;-4.20;64.90
27671;DHT22;15077;49.704;9.908;2022-12-18T08:41:03;-4.10;65.10
27671;DHT22;15077;49.704;9.908;2022-12-18T08:43:31;-4.10;65.20
27671;DHT22;15077;49.704;9.908;2022-12-18T08:46:16;-4.00;65.30
27671;DHT22;15077;49.704;9.908;2022-12-18T08:48:43;-4.00;65.30
27671;DHT22;15077;49.704;9.908;2022-12-18T08:51:09;-3.90;65.40
27671;DHT22;15077;49.704;9.908;2022-12-18T08:53:36;-3.90;65.40
27671;DHT22;15077;49.704;9.908;2022-12-18T08:56:02;-3.80;65.40
27671;DHT22;15077;49.704;9.908;2022-12-18T08:58:29;-3.80;65.50
27671;DHT22;15077;49.704;9.908;2022-12-18T09:01:03;-3.70;65.80
27671;DHT22;15077;49.704;9.908;2022-12-18T09:03:30;-3.70;65.80
27671;DHT22;15077;49.704;9.908;2022-12-18T09:05:55;-3.60;65.70
27671;DHT22;15077;49.704;9.908;2022-12-18T09:08:21;-3.60;65.60
27671;DHT22;15077;49.704;9.908;2022-12-18T09:10:49;-3.60;65.70
27671;DHT22;15077;49.704;9.908;2022-12-18T09:13:16;-3.50;65.80
27671;DHT22;15077;49.704;9.908;2022-12-18T09:15:43;-3.40;66.00
27671;DHT22;15077;49.704;9.908;2022-12-18T09:18:15;-3.40;65.90
27671;DHT22;15077;49.704;9.908;2022-12-18T09:20:42;-3.30;65.80
27671;DHT22;15077;49.704;9.908;2022-12-18T09:23:08;-3.30;65.70
27671;DHT22;15077;49.704;9.908;2022-12-18T09:25:35;-3.20;65.80
27671;DHT22;15077;49.704;9.908;2022-12-18T09:28:12;-3.20;65.80
27671;DHT22;15077;49.704;9.908;2022-12-18T09:30:45;-3.10;66.10
27671;DHT22;15077;49.704;9.908;2022-12-18T09:33:13;-3.10;66.30
27671;DHT22;15077;49.704;9.908;2022-12-18T09:35:39;-3.00;66.10
27671;DHT22;15077;49.704;9.908;2022-12-18T09:38:08;-3.00;66.30
27671;DHT22;15077;49.704;9.908;2022-12-18T09:40:53;-3.00;66.30
27671;DHT22;15077;49.704;9.908;2022-12-18T09:46:28;-2.90;66.50
27671;DHT22;15077;49.704;9.908;2022-12-18T09:48:59;-2.80;66.30
27671;DHT22;15077;49.704;9.908;2022-12-18T09:51:39;-2.80;66.50
27671;DHT22;15077;49.704;9.908;2022-12-18T09:54:18;-2.70;66.60
27671;DHT22;15077;49.704;9.908;2022-12-18T09:56:48;-2.60;66.80
27671;DHT22;15077;49.704;9.908;2022-12-18T09:59:29;-2.60;66.80
27671;DHT22;15077;49.704;9.908;2022-12-18T10:01:59;-2.50;66.90
27671;DHT22;15077;49.704;9.908;2022-12-18T10:04:27;-2.50;66.80
27671;DHT22;15077;49.704;9.908;2022-12-18T10:07:06;-2.40;66.80
27671;DHT22;15077;49.704;9.908;2022-12-18T10:12:32;-2.30;66.90
27671;DHT22;15077;49.704;9.908;2022-12-18T10:15:22;-2.30;66.80
27671;DHT22;15077;49.704;9.908;2022-12-18T10:21:04;-2.10;67.10
27671;DHT22;15077;49.704;9.908;2022-12-18T10:24:05;-2.10;66.80
27671;DHT22;15077;49.704;9.908;2022-12-18T10:26:41;-2.00;66.80
27671;DHT22;15077;49.704;9.908;2022-12-18T10:29:15;-1.90;66.80
27671;DHT22;15077;49.704;9.908;2022-12-18T10:31:42;-1.90;67.00
27671;DHT22;15077;49.704;9.908;2022-12-18T10:34:12;-1.90;67.00
27671;DHT22;15077;49.704;9.908;2022-12-18T10:36:38;-1.80;67.10
27671;DHT22;15077;49.704;9.908;2022-12-18T10:41:50;-1.70;67.20
27671;DHT22;15077;49.704;9.908;2022-12-18T10:44:19;-1.70;67.20
27671;DHT22;15077;49.704;9.908;2022-12-18T10:46:49;-1.60;67.20
27671;DHT22;15077;49.704;9.908;2022-12-18T10:49:26;-1.60;67.30
27671;DHT22;15077;49.704;9.908;2022-12-18T10:52:24;-1.50;67.10
27671;DHT22;15077;49.704;9.908;2022-12-18T10:54:55;-1.50;66.90
27671;DHT22;15077;49.704;9.908;2022-12-18T10:57:34;-1.50;67.00
27671;DHT22;15077;49.704;9.908;2022-12-18T11:02:56;-1.40;66.90
27671;DHT22;15077;49.704;9.908;2022-12-18T11:05:42;-1.30;66.90
27671;DHT22;15077;49.704;9.908;2022-12-18T11:08:20;-1.30;66.90
27671;DHT22;15077;49.704;9.908;2022-12-18T11:10:49;-1.20;67.00
27671;DHT22;15077;49.704;9.908;2022-12-18T11:13:23;-1.20;67.10
27671;DHT22;15077;49.704;9.908;2022-12-18T11:15:51;-1.10;67.20
27671;DHT22;15077;49.704;9.908;2022-12-18T11:18:30;-1.10;67.30
27671;DHT22;15077;49.704;9.908;2022-12-18T11:21:09;-1.00;67.30
27671;DHT22;15077;49.704;9.908;2022-12-18T11:26:18;-0.90;67.10
27671;DHT22;15077;49.704;9.908;2022-12-18T11:29:08;-0.90;67.10
27671;DHT22;15077;49.704;9.908;2022-12-18T11:31:36;-0.90;66.90
27671;DHT22;15077;49.704;9.908;2022-12-18T11:34:12;-0.80;66.90
27671;DHT22;15077;49.704;9.908;2022-12-18T11:37:12;-0.80;66.90
27671;DHT22;15077;49.704;9.908;2022-12-18T11:39:45;-0.70;66.90
27671;DHT22;15077;49.704;9.908;2022-12-18T11:42:32;-0.70;67.00
27671;DHT22;15077;49.704;9.908;2022-12-18T11:48:04;-0.60;66.90
27671;DHT22;15077;49.704;9.908;2022-12-18T11:50:57;-0.50;67.00
27671;DHT22;15077;49.704;9.908;2022-12-18T11:53:26;-0.50;66.90
27671;DHT22;15077;49.704;9.908;2022-12-18T11:58:50;-0.40;66.70
27671;DHT22;15077;49.704;9.908;2022-12-18T12:09:24;-0.30;66.60
27671;DHT22;15077;49.704;9.908;2022-12-18T12:12:45;-0.20;66.70
27671;DHT22;15077;49.704;9.908;2022-12-18T12:18:15;-0.20;66.60
27671;DHT22;15077;49.704;9.908;2022-12-18T12:29:49;0.00;66.70
27671;DHT22;15077;49.704;9.908;2022-12-18T12:36:04;0.10;66.60
27671;DHT22;15077;49.704;9.908;2022-12-18T12:38:52;0.20;66.60
27671;DHT22;15077;49.704;9.908;2022-12-18T12:41:25;0.30;66.60
27671;DHT22;15077;49.704;9.908;2022-12-18T12:44:20;0.40;66.60
27671;DHT22;15077;49.704;9.908;2022-12-18T12:46:52;0.50;66.30
27671;DHT22;15077;49.704;9.908;2022-12-18T12:49:26;0.50;66.20
27671;DHT22;15077;49.704;9.908;2022-12-18T12:52:04;0.60;66.20
27671;DHT22;15077;49.704;9.908;2022-12-18T12:54:38;0.60;66.00
27671;DHT22;15077;49.704;9.908;2022-12-18T13:00:15;0.70;65.90
27671;DHT22;15077;49.704;9.908;2022-12-18T13:05:34;0.70;65.80
27671;DHT22;15077;49.704;9.908;2022-12-18T13:08:11;0.80;65.80
27671;DHT22;15077;49.704;9.908;2022-12-18T13:10:48;0.80;65.40
27671;DHT22;15077;49.704;9.908;2022-12-18T13:13:15;0.80;65.40
27671;DHT22;15077;49.704;9.908;2022-12-18T13:16:27;0.80;65.30
27671;DHT22;15077;49.704;9.908;2022-12-18T13:18:30;0.80;65.40
27671;DHT22;15077;49.704;9.908;2022-12-18T13:31:14;0.90;64.90
27671;DHT22;15077;49.704;9.908;2022-12-18T13:34:17;1.00;64.90
27671;DHT22;15077;49.704;9.908;2022-12-18T13:36:45;1.00;64.70
27671;DHT22;15077;49.704;9.908;2022-12-18T13:41:41;1.00;64.60
27671;DHT22;15077;49.704;9.908;2022-12-18T13:44:34;1.00;64.60
27671;DHT22;15077;49.704;9.908;2022-12-18T13:47:03;1.00;64.50
27671;DHT22;15077;49.704;9.908;2022-12-18T13:49:37;1.00;64.50
27671;DHT22;15077;49.704;9.908;2022-12-18T13:52:42;1.00;64.50
27671;DHT22;15077;49.704;9.908;2022-12-18T13:55:16;0.90;64.40
27671;DHT22;15077;49.704;9.908;2022-12-18T13:57:44;0.90;64.40
27671;DHT22;15077;49.704;9.908;2022-12-18T14:02:48;0.90;64.30
27671;DHT22;15077;49.704;9.908;2022-12-18T14:05:25;0.90;64.30
27671;DHT22;15077;49.704;9.908;2022-12-18T14:08:03;0.90;64.30
27671;DHT22;15077;49.704;9.908;2022-12-18T14:10:31;0.90;64.30
27671;DHT22;15077;49.704;9.908;2022-12-18T14:13:03;0.90;64.20
27671;DHT22;15077;49.704;9.908;2022-12-18T14:15:42;0.80;64.20
27671;DHT22;15077;49.704;9.908;2022-12-18T14:18:26;0.90;64.30
27671;DHT22;15077;49.704;9.908;2022-12-18T14:21:03;0.80;64.20
27671;DHT22;15077;49.704;9.908;2022-12-18T14:26:26;0.80;64.10
27671;DHT22;15077;49.704;9.908;2022-12-18T14:28:59;0.80;64.10
27671;DHT22;15077;49.704;9.908;2022-12-18T14:31:42;0.80;64.10
27671;DHT22;15077;49.704;9.908;2022-12-18T14:34:15;0.80;64.00
27671;DHT22;15077;49.704;9.908;2022-12-18T14:36:41;0.80;64.00
27671;DHT22;15077;49.704;9.908;2022-12-18T14:39:17;0.80;64.00
27671;DHT22;15077;49.704;9.908;2022-12-18T14:41:43;0.80;63.90
27671;DHT22;15077;49.704;9.908;2022-12-18T14:44:12;0.80;63.90
27671;DHT22;15077;49.704;9.908;2022-12-18T14:46:39;0.80;64.00
27671;DHT22;15077;49.704;9.908;2022-12-18T14:49:40;0.80;63.90
27671;DHT22;15077;49.704;9.908;2022-12-18T14:52:20;0.70;63.90
27671;DHT22;15077;49.704;9.908;2022-12-18T14:54:50;0.80;63.90
27671;DHT22;15077;49.704;9.908;2022-12-18T14:57:29;0.70;63.90
27671;DHT22;15077;49.704;9.908;2022-12-18T15:00:18;0.80;63.90
27671;DHT22;15077;49.704;9.908;2022-12-18T15:02:53;0.70;63.70
27671;DHT22;15077;49.704;9.908;2022-12-18T15:05:26;0.70;63.80
27671;DHT22;15077;49.704;9.908;2022-12-18T15:07:55;0.70;63.70
27671;DHT22;15077;49.704;9.908;2022-12-18T15:10:26;0.70;63.70
27671;DHT22;15077;49.704;9.908;2022-12-18T15:26:03;0.70;63.70
27671;DHT22;15077;49.704;9.908;2022-12-18T15:28:39;0.70;63.70
27671;DHT22;15077;49.704;9.908;2022-12-18T15:33:41;0.70;63.70
27671;DHT22;15077;49.704;9.908;2022-12-18T15:36:25;0.70;63.70
27671;DHT22;15077;49.704;9.908;2022-12-18T15:38:54;0.70;63.70
27671;DHT22;15077;49.704;9.908;2022-12-18T15:41:22;0.70;63.70
27671;DHT22;15077;49.704;9.908;2022-12-18T15:43:50;0.70;63.70
27671;DHT22;15077;49.704;9.908;2022-12-18T15:46:21;0.70;63.70
27671;DHT22;15077;49.704;9.908;2022-12-18T15:48:50;0.70;63.70
27671;DHT22;15077;49.704;9.908;2022-12-18T15:51:20;0.70;63.70
27671;DHT22;15077;49.704;9.908;2022-12-18T15:53:50;0.70;63.70
27671;DHT22;15077;49.704;9.908;2022-12-18T15:56:18;0.70;63.70
27671;DHT22;15077;49.704;9.908;2022-12-18T15:59:08;0.70;63.70
27671;DHT22;15077;49.704;9.908;2022-12-18T16:01:37;0.70;63.70
27671;DHT22;15077;49.704;9.908;2022-12-18T16:04:03;0.70;63.60
27671;DHT22;15077;49.704;9.908;2022-12-18T16:06:29;0.70;63.60
27671;DHT22;15077;49.704;9.908;2022-12-18T16:08:55;0.70;63.60
27671;DHT22;15077;49.704;9.908;2022-12-18T16:11:29;0.70;63.50
27671;DHT22;15077;49.704;9.908;2022-12-18T16:16:46;0.70;63.50
27671;DHT22;15077;49.704;9.908;2022-12-18T16:19:17;0.70;63.50
27671;DHT22;15077;49.704;9.908;2022-12-18T16:21:44;0.70;63.50
27671;DHT22;15077;49.704;9.908;2022-12-18T16:24:23;0.70;63.50
27671;DHT22;15077;49.704;9.908;2022-12-18T16:26:51;0.70;63.50
27671;DHT22;15077;49.704;9.908;2022-12-18T16:29:18;0.70;63.50
27671;DHT22;15077;49.704;9.908;2022-12-18T16:31:45;0.70;63.60
27671;DHT22;15077;49.704;9.908;2022-12-18T16:34:20;0.70;63.60
27671;DHT22;15077;49.704;9.908;2022-12-18T16:36:53;0.70;63.60
27671;DHT22;15077;49.704;9.908;2022-12-18T16:39:21;0.60;63.50
27671;DHT22;15077;49.704;9.908;2022-12-18T16:41:48;0.60;63.40
27671;DHT22;15077;49.704;9.908;2022-12-18T16:44:14;0.60;63.50
27671;DHT22;15077;49.704;9.908;2022-12-18T16:46:40;0.60;63.50
27671;DHT22;15077;49.704;9.908;2022-12-18T16:49:09;0.60;63.50
27671;DHT22;15077;49.704;9.908;2022-12-18T16:51:35;0.60;63.50
27671;DHT22;15077;49.704;9.908;2022-12-18T16:54:01;0.60;63.50
27671;DHT22;15077;49.704;9.908;2022-12-18T16:56:27;0.60;63.40
27671;DHT22;15077;49.704;9.908;2022-12-18T16:58:54;0.60;63.40
27671;DHT22;15077;49.704;9.908;2022-12-18T17:01:22;0.60;63.50
27671;DHT22;15077;49.704;9.908;2022-12-18T17:03:59;0.60;63.40
27671;DHT22;15077;49.704;9.908;2022-12-18T17:06:29;0.60;63.40
27671;DHT22;15077;49.704;9.908;2022-12-18T17:08:58;0.60;63.40
27671;DHT22;15077;49.704;9.908;2022-12-18T17:11:26;0.60;63.50
27671;DHT22;15077;49.704;9.908;2022-12-18T17:13:54;0.50;63.50
27671;DHT22;15077;49.704;9.908;2022-12-18T17:16:21;0.50;63.50
27671;DHT22;15077;49.704;9.908;2022-12-18T17:18:47;0.50;63.50
27671;DHT22;15077;49.704;9.908;2022-12-18T17:21:13;0.50;63.70
27671;DHT22;15077;49.704;9.908;2022-12-18T17:23:41;0.50;63.70
27671;DHT22;15077;49.704;9.908;2022-12-18T17:26:12;0.50;63.80
27671;DHT22;15077;49.704;9.908;2022-12-18T17:28:39;0.40;63.70
27671;DHT22;15077;49.704;9.908;2022-12-18T17:31:15;0.40;63.70
27671;DHT22;15077;49.704;9.908;2022-12-18T17:33:42;0.40;63.70
27671;DHT22;15077;49.704;9.908;2022-12-18T17:36:09;0.40;63.70
27671;DHT22;15077;49.704;9.908;2022-12-18T17:38:36;0.40;63.70
27671;DHT22;15077;49.704;9.908;2022-12-18T17:41:07;0.40;63.70
27671;DHT22;15077;49.704;9.908;2022-12-18T17:43:35;0.40;63.80
27671;DHT22;15077;49.704;9.908;2022-12-18T17:46:11;0.40;63.70
27671;DHT22;15077;49.704;9.908;2022-12-18T17:48:39;0.40;63.70
27671;DHT22;15077;49.704;9.908;2022-12-18T17:51:07;0.40;63.70
27671;DHT22;15077;49.704;9.908;2022-12-18T17:53:35;0.40;63.70
27671;DHT22;15077;49.704;9.908;2022-12-18T17:56:03;0.40;63.70
27671;DHT22;15077;49.704;9.908;2022-12-18T17:58:35;0.40;63.70
27671;DHT22;15077;49.704;9.908;2022-12-18T18:01:03;0.40;63.70
27671;DHT22;15077;49.704;9.908;2022-12-18T18:03:31;0.40;63.70
27671;DHT22;15077;49.704;9.908;2022-12-18T18:05:59;0.40;63.70